Terminal Aerodrome Forecast
Issued by NWS

Home | Current Version | Previous Version | Text Only | Print | Product List | Glossary Off
Versions: 1 2 3 4 5 6 7 8 9 10 11 12 13

838
FTUS42 KMHX 251007 AAA
TAFISO
TAF AMD
KISO 251007Z 2510/2606 VRB03KT P6SM FEW040
      TEMPO 2510/2512 3SM BR
     FM251500 15004KT P6SM SCT050
      AMD LTD TO CLD VIS AND WIND=

USA.gov is the U.S. government's official web portal to all federal, state and local government web resources and services.